sensor_id;sensor_type;location;lat;lon;timestamp;P1;durP1;ratioP1;P2;durP2;ratioP2
59649;SDS011;46162;57.568;25.814;2022-12-07T00:01:25;8.07;;;4.22;;
59649;SDS011;46162;57.568;25.814;2022-12-07T00:03:56;7.10;;;3.92;;
59649;SDS011;46162;57.568;25.814;2022-12-07T00:06:31;8.68;;;3.85;;
59649;SDS011;46162;57.568;25.814;2022-12-07T00:09:01;9.52;;;4.50;;
59649;SDS011;46162;57.568;25.814;2022-12-07T00:11:31;7.60;;;4.25;;
59649;SDS011;46162;57.568;25.814;2022-12-07T00:14:00;8.20;;;4.63;;
59649;SDS011;46162;57.568;25.814;2022-12-07T00:16:31;9.73;;;4.63;;
59649;SDS011;46162;57.568;25.814;2022-12-07T00:19:01;9.93;;;4.90;;
59649;SDS011;46162;57.568;25.814;2022-12-07T00:21:31;8.48;;;4.25;;
59649;SDS011;46162;57.568;25.814;2022-12-07T00:24:01;6.97;;;3.90;;
59649;SDS011;46162;57.568;25.814;2022-12-07T00:26:33;8.55;;;3.95;;
59649;SDS011;46162;57.568;25.814;2022-12-07T00:29:04;7.05;;;3.92;;
59649;SDS011;46162;57.568;25.814;2022-12-07T00:31:34;8.73;;;4.45;;
59649;SDS011;46162;57.568;25.814;2022-12-07T00:34:06;8.98;;;4.63;;
59649;SDS011;46162;57.568;25.814;2022-12-07T00:36:35;7.70;;;3.92;;
59649;SDS011;46162;57.568;25.814;2022-12-07T00:39:04;7.72;;;4.15;;
59649;SDS011;46162;57.568;25.814;2022-12-07T00:41:34;7.75;;;4.25;;
59649;SDS011;46162;57.568;25.814;2022-12-07T00:44:03;7.20;;;4.05;;
59649;SDS011;46162;57.568;25.814;2022-12-07T00:46:31;8.18;;;4.43;;
59649;SDS011;46162;57.568;25.814;2022-12-07T00:49:00;7.20;;;3.80;;
59649;SDS011;46162;57.568;25.814;2022-12-07T00:51:28;8.43;;;4.05;;
59649;SDS011;46162;57.568;25.814;2022-12-07T00:53:57;7.82;;;3.97;;
59649;SDS011;46162;57.568;25.814;2022-12-07T00:56:26;8.38;;;3.92;;
59649;SDS011;46162;57.568;25.814;2022-12-07T00:58:57;8.10;;;4.13;;
59649;SDS011;46162;57.568;25.814;2022-12-07T01:01:27;7.72;;;4.22;;
59649;SDS011;46162;57.568;25.814;2022-12-07T01:03:58;8.13;;;4.60;;
59649;SDS011;46162;57.568;25.814;2022-12-07T01:06:28;7.10;;;4.13;;
59649;SDS011;46162;57.568;25.814;2022-12-07T01:08:57;7.40;;;4.20;;
59649;SDS011;46162;57.568;25.814;2022-12-07T01:11:28;7.38;;;3.97;;
59649;SDS011;46162;57.568;25.814;2022-12-07T01:13:59;6.22;;;3.63;;
59649;SDS011;46162;57.568;25.814;2022-12-07T01:16:28;7.93;;;3.63;;
59649;SDS011;46162;57.568;25.814;2022-12-07T01:18:59;6.00;;;3.58;;
59649;SDS011;46162;57.568;25.814;2022-12-07T01:21:28;6.80;;;3.42;;
59649;SDS011;46162;57.568;25.814;2022-12-07T01:24:01;6.32;;;3.80;;
59649;SDS011;46162;57.568;25.814;2022-12-07T01:26:31;7.13;;;3.40;;
59649;SDS011;46162;57.568;25.814;2022-12-07T01:29:01;7.75;;;4.07;;
59649;SDS011;46162;57.568;25.814;2022-12-07T01:31:29;6.45;;;3.10;;
59649;SDS011;46162;57.568;25.814;2022-12-07T01:33:58;5.70;;;3.40;;
59649;SDS011;46162;57.568;25.814;2022-12-07T01:36:28;6.43;;;3.25;;
59649;SDS011;46162;57.568;25.814;2022-12-07T01:39:00;6.85;;;3.00;;
59649;SDS011;46162;57.568;25.814;2022-12-07T01:41:30;5.05;;;2.63;;
59649;SDS011;46162;57.568;25.814;2022-12-07T01:44:15;5.68;;;3.35;;
59649;SDS011;46162;57.568;25.814;2022-12-07T01:46:46;6.00;;;3.03;;
59649;SDS011;46162;57.568;25.814;2022-12-07T01:49:18;5.47;;;3.15;;
59649;SDS011;46162;57.568;25.814;2022-12-07T01:51:51;6.53;;;2.75;;
59649;SDS011;46162;57.568;25.814;2022-12-07T01:54:25;6.07;;;3.08;;
59649;SDS011;46162;57.568;25.814;2022-12-07T01:56:54;4.70;;;2.40;;
59649;SDS011;46162;57.568;25.814;2022-12-07T01:59:26;7.28;;;2.83;;
59649;SDS011;46162;57.568;25.814;2022-12-07T02:01:55;6.07;;;3.00;;
59649;SDS011;46162;57.568;25.814;2022-12-07T02:04:24;4.70;;;2.63;;
59649;SDS011;46162;57.568;25.814;2022-12-07T02:06:53;4.30;;;2.33;;
59649;SDS011;46162;57.568;25.814;2022-12-07T02:09:24;4.95;;;2.58;;
59649;SDS011;46162;57.568;25.814;2022-12-07T02:11:52;5.60;;;2.50;;
59649;SDS011;46162;57.568;25.814;2022-12-07T02:14:22;4.78;;;2.55;;
59649;SDS011;46162;57.568;25.814;2022-12-07T02:16:56;4.95;;;2.20;;
59649;SDS011;46162;57.568;25.814;2022-12-07T02:19:39;4.93;;;2.33;;
59649;SDS011;46162;57.568;25.814;2022-12-07T02:22:40;4.32;;;2.03;;
59649;SDS011;46162;57.568;25.814;2022-12-07T02:25:33;4.00;;;1.92;;
59649;SDS011;46162;57.568;25.814;2022-12-07T02:28:17;3.90;;;1.55;;
59649;SDS011;46162;57.568;25.814;2022-12-07T02:30:57;4.97;;;2.33;;
59649;SDS011;46162;57.568;25.814;2022-12-07T02:33:31;5.22;;;1.77;;
59649;SDS011;46162;57.568;25.814;2022-12-07T02:36:05;3.85;;;1.88;;
59649;SDS011;46162;57.568;25.814;2022-12-07T02:38:39;4.38;;;1.92;;
59649;SDS011;46162;57.568;25.814;2022-12-07T02:41:16;4.68;;;1.70;;
59649;SDS011;46162;57.568;25.814;2022-12-07T02:43:50;4.68;;;1.90;;
59649;SDS011;46162;57.568;25.814;2022-12-07T02:46:25;3.40;;;1.25;;
59649;SDS011;46162;57.568;25.814;2022-12-07T02:48:58;4.50;;;1.70;;
59649;SDS011;46162;57.568;25.814;2022-12-07T02:51:29;4.38;;;1.60;;
59649;SDS011;46162;57.568;25.814;2022-12-07T02:56:29;4.00;;;1.50;;
59649;SDS011;46162;57.568;25.814;2022-12-07T02:59:10;4.78;;;1.70;;
59649;SDS011;46162;57.568;25.814;2022-12-07T03:01:49;3.08;;;1.30;;
59649;SDS011;46162;57.568;25.814;2022-12-07T03:04:28;3.80;;;1.52;;
59649;SDS011;46162;57.568;25.814;2022-12-07T03:07:06;3.23;;;1.50;;
59649;SDS011;46162;57.568;25.814;2022-12-07T03:09:43;3.45;;;1.65;;
59649;SDS011;46162;57.568;25.814;2022-12-07T03:12:15;4.32;;;1.55;;
59649;SDS011;46162;57.568;25.814;2022-12-07T03:14:48;4.25;;;1.58;;
59649;SDS011;46162;57.568;25.814;2022-12-07T03:17:23;3.05;;;1.08;;
59649;SDS011;46162;57.568;25.814;2022-12-07T03:19:56;4.88;;;1.70;;
59649;SDS011;46162;57.568;25.814;2022-12-07T03:22:29;4.18;;;1.70;;
59649;SDS011;46162;57.568;25.814;2022-12-07T03:25:03;3.45;;;1.60;;
59649;SDS011;46162;57.568;25.814;2022-12-07T03:27:35;4.20;;;1.60;;
59649;SDS011;46162;57.568;25.814;2022-12-07T03:30:08;4.20;;;1.60;;
59649;SDS011;46162;57.568;25.814;2022-12-07T03:32:43;4.32;;;1.40;;
59649;SDS011;46162;57.568;25.814;2022-12-07T03:35:18;3.55;;;1.48;;
59649;SDS011;46162;57.568;25.814;2022-12-07T03:37:52;3.85;;;1.75;;
59649;SDS011;46162;57.568;25.814;2022-12-07T03:40:26;3.25;;;1.00;;
59649;SDS011;46162;57.568;25.814;2022-12-07T03:42:58;2.92;;;0.95;;
59649;SDS011;46162;57.568;25.814;2022-12-07T03:45:31;3.03;;;1.10;;
59649;SDS011;46162;57.568;25.814;2022-12-07T03:48:08;3.55;;;1.55;;
59649;SDS011;46162;57.568;25.814;2022-12-07T03:50:43;3.47;;;1.40;;
59649;SDS011;46162;57.568;25.814;2022-12-07T03:53:19;3.72;;;1.23;;
59649;SDS011;46162;57.568;25.814;2022-12-07T03:55:53;4.35;;;1.30;;
59649;SDS011;46162;57.568;25.814;2022-12-07T03:58:23;3.33;;;1.23;;
59649;SDS011;46162;57.568;25.814;2022-12-07T04:00:54;3.50;;;1.38;;
59649;SDS011;46162;57.568;25.814;2022-12-07T04:03:25;3.55;;;1.63;;
59649;SDS011;46162;57.568;25.814;2022-12-07T04:05:54;4.70;;;1.38;;
59649;SDS011;46162;57.568;25.814;2022-12-07T04:08:23;3.50;;;1.08;;
59649;SDS011;46162;57.568;25.814;2022-12-07T04:10:54;3.17;;;1.38;;
59649;SDS011;46162;57.568;25.814;2022-12-07T04:13:23;3.75;;;1.27;;
59649;SDS011;46162;57.568;25.814;2022-12-07T04:15:55;3.95;;;1.33;;
59649;SDS011;46162;57.568;25.814;2022-12-07T04:18:25;3.33;;;1.25;;
59649;SDS011;46162;57.568;25.814;2022-12-07T04:20:54;3.50;;;1.08;;
59649;SDS011;46162;57.568;25.814;2022-12-07T04:23:23;4.20;;;1.30;;
59649;SDS011;46162;57.568;25.814;2022-12-07T04:25:52;4.28;;;1.25;;
59649;SDS011;46162;57.568;25.814;2022-12-07T04:28:21;3.00;;;1.20;;
59649;SDS011;46162;57.568;25.814;2022-12-07T04:30:50;4.72;;;1.67;;
59649;SDS011;46162;57.568;25.814;2022-12-07T04:33:19;3.55;;;1.20;;
59649;SDS011;46162;57.568;25.814;2022-12-07T04:35:49;3.83;;;1.50;;
59649;SDS011;46162;57.568;25.814;2022-12-07T04:38:18;3.55;;;1.20;;
59649;SDS011;46162;57.568;25.814;2022-12-07T04:40:47;4.10;;;1.42;;
59649;SDS011;46162;57.568;25.814;2022-12-07T04:43:16;2.67;;;1.08;;
59649;SDS011;46162;57.568;25.814;2022-12-07T04:45:45;3.83;;;1.48;;
59649;SDS011;46162;57.568;25.814;2022-12-07T04:48:15;3.83;;;1.60;;
59649;SDS011;46162;57.568;25.814;2022-12-07T04:50:44;3.55;;;1.70;;
59649;SDS011;46162;57.568;25.814;2022-12-07T04:53:17;3.75;;;1.60;;
59649;SDS011;46162;57.568;25.814;2022-12-07T04:55:46;3.65;;;1.40;;
59649;SDS011;46162;57.568;25.814;2022-12-07T04:58:15;4.18;;;1.90;;
59649;SDS011;46162;57.568;25.814;2022-12-07T05:00:44;3.63;;;1.40;;
59649;SDS011;46162;57.568;25.814;2022-12-07T05:03:13;4.53;;;1.88;;
59649;SDS011;46162;57.568;25.814;2022-12-07T05:05:42;3.63;;;1.65;;
59649;SDS011;46162;57.568;25.814;2022-12-07T05:08:11;4.57;;;2.05;;
59649;SDS011;46162;57.568;25.814;2022-12-07T05:10:41;3.35;;;1.40;;
59649;SDS011;46162;57.568;25.814;2022-12-07T05:13:10;4.10;;;1.83;;
59649;SDS011;46162;57.568;25.814;2022-12-07T05:15:38;3.55;;;1.45;;
59649;SDS011;46162;57.568;25.814;2022-12-07T05:18:10;3.67;;;1.80;;
59649;SDS011;46162;57.568;25.814;2022-12-07T05:20:39;4.40;;;1.98;;
59649;SDS011;46162;57.568;25.814;2022-12-07T05:23:08;4.38;;;2.30;;
59649;SDS011;46162;57.568;25.814;2022-12-07T05:25:44;4.53;;;2.17;;
59649;SDS011;46162;57.568;25.814;2022-12-07T05:28:14;3.95;;;2.00;;
59649;SDS011;46162;57.568;25.814;2022-12-07T05:30:43;4.43;;;2.60;;
59649;SDS011;46162;57.568;25.814;2022-12-07T05:33:12;4.32;;;2.15;;
59649;SDS011;46162;57.568;25.814;2022-12-07T05:35:40;5.68;;;2.85;;
59649;SDS011;46162;57.568;25.814;2022-12-07T05:38:12;4.45;;;2.05;;
59649;SDS011;46162;57.568;25.814;2022-12-07T05:40:41;5.28;;;2.95;;
59649;SDS011;46162;57.568;25.814;2022-12-07T05:43:11;5.10;;;2.33;;
59649;SDS011;46162;57.568;25.814;2022-12-07T05:45:40;4.75;;;3.03;;
59649;SDS011;46162;57.568;25.814;2022-12-07T05:48:09;4.80;;;2.63;;
59649;SDS011;46162;57.568;25.814;2022-12-07T05:50:41;5.05;;;2.85;;
59649;SDS011;46162;57.568;25.814;2022-12-07T05:53:10;5.45;;;2.88;;
59649;SDS011;46162;57.568;25.814;2022-12-07T05:55:51;4.43;;;2.58;;
59649;SDS011;46162;57.568;25.814;2022-12-07T05:58:24;5.63;;;3.47;;
59649;SDS011;46162;57.568;25.814;2022-12-07T06:01:10;5.55;;;3.10;;
59649;SDS011;46162;57.568;25.814;2022-12-07T06:03:39;4.30;;;2.55;;
59649;SDS011;46162;57.568;25.814;2022-12-07T06:06:08;5.38;;;2.88;;
59649;SDS011;46162;57.568;25.814;2022-12-07T06:08:36;5.35;;;2.88;;
59649;SDS011;46162;57.568;25.814;2022-12-07T06:11:05;8.20;;;3.70;;
59649;SDS011;46162;57.568;25.814;2022-12-07T06:13:52;5.03;;;3.10;;
59649;SDS011;46162;57.568;25.814;2022-12-07T06:16:21;5.90;;;3.58;;
59649;SDS011;46162;57.568;25.814;2022-12-07T06:18:50;6.57;;;3.67;;
59649;SDS011;46162;57.568;25.814;2022-12-07T06:21:19;5.55;;;3.45;;
59649;SDS011;46162;57.568;25.814;2022-12-07T06:23:47;6.72;;;3.60;;
59649;SDS011;46162;57.568;25.814;2022-12-07T06:26:16;6.28;;;3.67;;
59649;SDS011;46162;57.568;25.814;2022-12-07T06:28:45;6.68;;;3.78;;
59649;SDS011;46162;57.568;25.814;2022-12-07T06:31:16;6.22;;;3.42;;
59649;SDS011;46162;57.568;25.814;2022-12-07T06:33:44;5.13;;;3.63;;
59649;SDS011;46162;57.568;25.814;2022-12-07T06:36:13;5.55;;;3.90;;
59649;SDS011;46162;57.568;25.814;2022-12-07T06:38:42;6.28;;;3.40;;
59649;SDS011;46162;57.568;25.814;2022-12-07T06:41:11;6.68;;;4.10;;
59649;SDS011;46162;57.568;25.814;2022-12-07T06:43:53;6.20;;;4.13;;
59649;SDS011;46162;57.568;25.814;2022-12-07T06:46:23;6.07;;;3.60;;
59649;SDS011;46162;57.568;25.814;2022-12-07T06:48:53;6.13;;;3.38;;
59649;SDS011;46162;57.568;25.814;2022-12-07T06:51:22;6.18;;;3.83;;
59649;SDS011;46162;57.568;25.814;2022-12-07T06:53:50;6.20;;;4.13;;
59649;SDS011;46162;57.568;25.814;2022-12-07T06:56:19;7.05;;;4.13;;
59649;SDS011;46162;57.568;25.814;2022-12-07T06:58:49;6.47;;;3.55;;
59649;SDS011;46162;57.568;25.814;2022-12-07T07:01:18;6.65;;;4.15;;
59649;SDS011;46162;57.568;25.814;2022-12-07T07:03:50;6.38;;;3.90;;
59649;SDS011;46162;57.568;25.814;2022-12-07T07:06:20;7.32;;;3.45;;
59649;SDS011;46162;57.568;25.814;2022-12-07T07:11:20;8.65;;;3.83;;
59649;SDS011;46162;57.568;25.814;2022-12-07T07:13:49;6.43;;;3.80;;
59649;SDS011;46162;57.568;25.814;2022-12-07T07:16:17;7.72;;;4.72;;
59649;SDS011;46162;57.568;25.814;2022-12-07T07:18:46;6.43;;;4.03;;
59649;SDS011;46162;57.568;25.814;2022-12-07T07:21:16;7.40;;;4.03;;
59649;SDS011;46162;57.568;25.814;2022-12-07T07:23:45;7.65;;;4.22;;
59649;SDS011;46162;57.568;25.814;2022-12-07T07:26:14;8.13;;;4.82;;
59649;SDS011;46162;57.568;25.814;2022-12-07T07:28:49;8.93;;;4.78;;
59649;SDS011;46162;57.568;25.814;2022-12-07T07:31:18;7.82;;;4.78;;
59649;SDS011;46162;57.568;25.814;2022-12-07T07:33:47;9.40;;;5.57;;
59649;SDS011;46162;57.568;25.814;2022-12-07T07:36:17;9.98;;;4.97;;
59649;SDS011;46162;57.568;25.814;2022-12-07T07:38:46;8.17;;;4.93;;
59649;SDS011;46162;57.568;25.814;2022-12-07T07:41:15;8.40;;;4.95;;
59649;SDS011;46162;57.568;25.814;2022-12-07T07:43:44;7.88;;;4.60;;
59649;SDS011;46162;57.568;25.814;2022-12-07T07:46:13;7.75;;;4.50;;
59649;SDS011;46162;57.568;25.814;2022-12-07T07:48:42;7.78;;;4.22;;
59649;SDS011;46162;57.568;25.814;2022-12-07T07:51:18;8.45;;;4.97;;
59649;SDS011;46162;57.568;25.814;2022-12-07T07:53:47;7.38;;;4.53;;
59649;SDS011;46162;57.568;25.814;2022-12-07T07:56:16;7.90;;;4.95;;
59649;SDS011;46162;57.568;25.814;2022-12-07T07:58:51;6.57;;;4.10;;
59649;SDS011;46162;57.568;25.814;2022-12-07T08:01:20;7.97;;;4.47;;
59649;SDS011;46162;57.568;25.814;2022-12-07T08:03:49;9.23;;;4.43;;
59649;SDS011;46162;57.568;25.814;2022-12-07T08:06:19;7.68;;;4.30;;
59649;SDS011;46162;57.568;25.814;2022-12-07T08:21:36;7.82;;;5.03;;
59649;SDS011;46162;57.568;25.814;2022-12-07T08:24:06;6.85;;;4.55;;
59649;SDS011;46162;57.568;25.814;2022-12-07T08:26:35;6.90;;;3.97;;
59649;SDS011;46162;57.568;25.814;2022-12-07T08:29:04;7.10;;;4.25;;
59649;SDS011;46162;57.568;25.814;2022-12-07T08:31:33;6.40;;;4.13;;
59649;SDS011;46162;57.568;25.814;2022-12-07T08:34:02;6.53;;;3.50;;
59649;SDS011;46162;57.568;25.814;2022-12-07T08:36:31;6.97;;;4.25;;
59649;SDS011;46162;57.568;25.814;2022-12-07T08:39:02;6.60;;;3.78;;
59649;SDS011;46162;57.568;25.814;2022-12-07T08:41:51;7.85;;;4.20;;
59649;SDS011;46162;57.568;25.814;2022-12-07T08:44:20;6.65;;;4.00;;
59649;SDS011;46162;57.568;25.814;2022-12-07T08:46:51;8.15;;;4.03;;
59649;SDS011;46162;57.568;25.814;2022-12-07T08:49:24;7.38;;;4.28;;
59649;SDS011;46162;57.568;25.814;2022-12-07T08:51:57;6.95;;;4.50;;
59649;SDS011;46162;57.568;25.814;2022-12-07T08:54:29;7.05;;;4.13;;
59649;SDS011;46162;57.568;25.814;2022-12-07T08:56:58;7.00;;;4.10;;
59649;SDS011;46162;57.568;25.814;2022-12-07T08:59:28;9.02;;;5.60;;
59649;SDS011;46162;57.568;25.814;2022-12-07T09:01:58;6.80;;;4.30;;
59649;SDS011;46162;57.568;25.814;2022-12-07T09:04:27;7.53;;;4.55;;
59649;SDS011;46162;57.568;25.814;2022-12-07T09:06:57;6.82;;;3.90;;
59649;SDS011;46162;57.568;25.814;2022-12-07T09:09:26;6.03;;;4.00;;
59649;SDS011;46162;57.568;25.814;2022-12-07T09:11:57;7.88;;;3.70;;
59649;SDS011;46162;57.568;25.814;2022-12-07T09:14:25;5.30;;;3.42;;
59649;SDS011;46162;57.568;25.814;2022-12-07T09:16:54;6.15;;;3.97;;
59649;SDS011;46162;57.568;25.814;2022-12-07T09:19:24;7.00;;;4.00;;
59649;SDS011;46162;57.568;25.814;2022-12-07T09:21:55;8.30;;;4.30;;
59649;SDS011;46162;57.568;25.814;2022-12-07T09:26:53;7.03;;;4.47;;
59649;SDS011;46162;57.568;25.814;2022-12-07T09:29:24;6.95;;;4.05;;
59649;SDS011;46162;57.568;25.814;2022-12-07T09:31:53;6.30;;;4.47;;
59649;SDS011;46162;57.568;25.814;2022-12-07T09:34:22;6.40;;;3.65;;
59649;SDS011;46162;57.568;25.814;2022-12-07T09:36:53;5.97;;;3.38;;
59649;SDS011;46162;57.568;25.814;2022-12-07T09:39:22;6.65;;;3.92;;
59649;SDS011;46162;57.568;25.814;2022-12-07T09:41:51;6.75;;;4.20;;
59649;SDS011;46162;57.568;25.814;2022-12-07T09:44:20;6.40;;;4.07;;
59649;SDS011;46162;57.568;25.814;2022-12-07T09:46:53;5.60;;;4.00;;
59649;SDS011;46162;57.568;25.814;2022-12-07T09:49:24;6.53;;;3.88;;
59649;SDS011;46162;57.568;25.814;2022-12-07T09:52:00;6.78;;;4.28;;
59649;SDS011;46162;57.568;25.814;2022-12-07T09:54:30;7.05;;;4.00;;
59649;SDS011;46162;57.568;25.814;2022-12-07T09:57:04;6.38;;;3.45;;
59649;SDS011;46162;57.568;25.814;2022-12-07T09:59:37;8.05;;;4.30;;
59649;SDS011;46162;57.568;25.814;2022-12-07T10:02:21;6.78;;;4.00;;
59649;SDS011;46162;57.568;25.814;2022-12-07T10:04:55;7.43;;;3.83;;
59649;SDS011;46162;57.568;25.814;2022-12-07T10:07:27;6.35;;;3.47;;
59649;SDS011;46162;57.568;25.814;2022-12-07T10:09:57;8.38;;;4.10;;
59649;SDS011;46162;57.568;25.814;2022-12-07T10:12:26;8.75;;;4.32;;
59649;SDS011;46162;57.568;25.814;2022-12-07T10:14:59;7.15;;;4.13;;
59649;SDS011;46162;57.568;25.814;2022-12-07T10:17:47;9.38;;;4.45;;
59649;SDS011;46162;57.568;25.814;2022-12-07T10:20:20;6.30;;;3.97;;
59649;SDS011;46162;57.568;25.814;2022-12-07T10:22:54;6.38;;;3.75;;
59649;SDS011;46162;57.568;25.814;2022-12-07T10:25:29;8.45;;;4.30;;
59649;SDS011;46162;57.568;25.814;2022-12-07T10:28:02;5.90;;;3.72;;
59649;SDS011;46162;57.568;25.814;2022-12-07T10:30:53;6.30;;;4.03;;
59649;SDS011;46162;57.568;25.814;2022-12-07T10:33:33;6.07;;;3.63;;
59649;SDS011;46162;57.568;25.814;2022-12-07T10:36:17;7.13;;;3.88;;
59649;SDS011;46162;57.568;25.814;2022-12-07T10:38:51;7.25;;;4.10;;
59649;SDS011;46162;57.568;25.814;2022-12-07T10:41:21;8.18;;;3.60;;
59649;SDS011;46162;57.568;25.814;2022-12-07T10:52:49;6.32;;;3.67;;
59649;SDS011;46162;57.568;25.814;2022-12-07T10:55:28;6.90;;;3.67;;
59649;SDS011;46162;57.568;25.814;2022-12-07T10:58:15;6.80;;;3.78;;
59649;SDS011;46162;57.568;25.814;2022-12-07T11:00:55;8.20;;;3.40;;
59649;SDS011;46162;57.568;25.814;2022-12-07T11:03:38;7.97;;;3.97;;
59649;SDS011;46162;57.568;25.814;2022-12-07T11:08:59;6.07;;;3.47;;
59649;SDS011;46162;57.568;25.814;2022-12-07T11:11:36;6.60;;;3.08;;
59649;SDS011;46162;57.568;25.814;2022-12-07T11:14:12;5.28;;;3.20;;
59649;SDS011;46162;57.568;25.814;2022-12-07T11:16:54;7.55;;;3.65;;
59649;SDS011;46162;57.568;25.814;2022-12-07T11:19:34;6.22;;;3.55;;
59649;SDS011;46162;57.568;25.814;2022-12-07T11:24:51;7.05;;;4.03;;
59649;SDS011;46162;57.568;25.814;2022-12-07T11:27:30;7.13;;;3.55;;
59649;SDS011;46162;57.568;25.814;2022-12-07T11:30:10;7.85;;;4.13;;
59649;SDS011;46162;57.568;25.814;2022-12-07T11:32:55;6.60;;;4.03;;
59649;SDS011;46162;57.568;25.814;2022-12-07T11:35:39;8.70;;;4.93;;
59649;SDS011;46162;57.568;25.814;2022-12-07T11:38:19;11.48;;;4.75;;
59649;SDS011;46162;57.568;25.814;2022-12-07T11:40:56;13.02;;;4.20;;
59649;SDS011;46162;57.568;25.814;2022-12-07T11:43:49;9.73;;;4.05;;
59649;SDS011;46162;57.568;25.814;2022-12-07T11:46:23;8.85;;;4.03;;
59649;SDS011;46162;57.568;25.814;2022-12-07T11:48:58;7.28;;;4.22;;
59649;SDS011;46162;57.568;25.814;2022-12-07T11:51:34;7.40;;;3.53;;
59649;SDS011;46162;57.568;25.814;2022-12-07T11:54:10;8.13;;;4.38;;
59649;SDS011;46162;57.568;25.814;2022-12-07T11:56:43;6.13;;;3.83;;
59649;SDS011;46162;57.568;25.814;2022-12-07T11:59:17;7.32;;;3.75;;
59649;SDS011;46162;57.568;25.814;2022-12-07T12:01:53;8.07;;;3.92;;
59649;SDS011;46162;57.568;25.814;2022-12-07T12:04:27;7.80;;;4.25;;
59649;SDS011;46162;57.568;25.814;2022-12-07T12:07:05;6.88;;;4.10;;
59649;SDS011;46162;57.568;25.814;2022-12-07T12:09:58;6.43;;;3.38;;
59649;SDS011;46162;57.568;25.814;2022-12-07T12:12:42;8.07;;;3.92;;
59649;SDS011;46162;57.568;25.814;2022-12-07T12:15:47;7.80;;;3.60;;
59649;SDS011;46162;57.568;25.814;2022-12-07T12:18:36;7.72;;;3.75;;
59649;SDS011;46162;57.568;25.814;2022-12-07T12:21:21;8.32;;;4.40;;
59649;SDS011;46162;57.568;25.814;2022-12-07T12:23:57;9.10;;;4.50;;
59649;SDS011;46162;57.568;25.814;2022-12-07T12:26:31;9.40;;;4.80;;
59649;SDS011;46162;57.568;25.814;2022-12-07T12:29:04;8.77;;;5.55;;
59649;SDS011;46162;57.568;25.814;2022-12-07T12:31:37;7.20;;;4.60;;
59649;SDS011;46162;57.568;25.814;2022-12-07T12:46:45;9.07;;;5.00;;
59649;SDS011;46162;57.568;25.814;2022-12-07T12:49:35;9.90;;;5.47;;
59649;SDS011;46162;57.568;25.814;2022-12-07T12:58:39;9.55;;;5.28;;
59649;SDS011;46162;57.568;25.814;2022-12-07T13:04:17;8.55;;;5.40;;
59649;SDS011;46162;57.568;25.814;2022-12-07T13:06:51;8.25;;;5.28;;
59649;SDS011;46162;57.568;25.814;2022-12-07T13:09:22;8.43;;;4.78;;
59649;SDS011;46162;57.568;25.814;2022-12-07T13:11:58;8.82;;;4.78;;
59649;SDS011;46162;57.568;25.814;2022-12-07T13:20:40;9.02;;;5.25;;
59649;SDS011;46162;57.568;25.814;2022-12-07T13:23:18;8.35;;;5.32;;
59649;SDS011;46162;57.568;25.814;2022-12-07T13:28:52;8.45;;;5.35;;
59649;SDS011;46162;57.568;25.814;2022-12-07T13:31:38;8.85;;;5.78;;
59649;SDS011;46162;57.568;25.814;2022-12-07T13:34:28;8.35;;;5.18;;
59649;SDS011;46162;57.568;25.814;2022-12-07T13:37:00;8.75;;;4.90;;
59649;SDS011;46162;57.568;25.814;2022-12-07T13:39:32;8.25;;;5.47;;
59649;SDS011;46162;57.568;25.814;2022-12-07T13:42:07;8.98;;;5.82;;
59649;SDS011;46162;57.568;25.814;2022-12-07T13:44:43;9.07;;;5.05;;
59649;SDS011;46162;57.568;25.814;2022-12-07T13:47:14;9.15;;;5.55;;
59649;SDS011;46162;57.568;25.814;2022-12-07T13:49:47;7.80;;;5.13;;
59649;SDS011;46162;57.568;25.814;2022-12-07T13:52:20;10.38;;;5.05;;
59649;SDS011;46162;57.568;25.814;2022-12-07T13:54:55;9.80;;;5.32;;
59649;SDS011;46162;57.568;25.814;2022-12-07T13:57:26;8.43;;;5.30;;
59649;SDS011;46162;57.568;25.814;2022-12-07T13:59:57;8.63;;;4.85;;
59649;SDS011;46162;57.568;25.814;2022-12-07T14:02:29;9.88;;;5.68;;
59649;SDS011;46162;57.568;25.814;2022-12-07T14:05:08;8.45;;;5.28;;
59649;SDS011;46162;57.568;25.814;2022-12-07T14:07:48;9.20;;;5.15;;
59649;SDS011;46162;57.568;25.814;2022-12-07T14:10:23;8.00;;;5.10;;
59649;SDS011;46162;57.568;25.814;2022-12-07T14:12:54;9.20;;;5.35;;
59649;SDS011;46162;57.568;25.814;2022-12-07T14:15:24;9.07;;;5.22;;
59649;SDS011;46162;57.568;25.814;2022-12-07T14:18:00;8.27;;;5.22;;
59649;SDS011;46162;57.568;25.814;2022-12-07T14:20:32;8.23;;;5.47;;
59649;SDS011;46162;57.568;25.814;2022-12-07T14:23:03;8.68;;;5.43;;
59649;SDS011;46162;57.568;25.814;2022-12-07T14:28:34;8.05;;;5.15;;
59649;SDS011;46162;57.568;25.814;2022-12-07T14:31:07;8.15;;;5.22;;
59649;SDS011;46162;57.568;25.814;2022-12-07T14:33:51;8.57;;;5.15;;
59649;SDS011;46162;57.568;25.814;2022-12-07T14:36:19;8.50;;;5.05;;
59649;SDS011;46162;57.568;25.814;2022-12-07T14:38:48;8.05;;;5.32;;
59649;SDS011;46162;57.568;25.814;2022-12-07T14:41:20;8.35;;;5.38;;
59649;SDS011;46162;57.568;25.814;2022-12-07T14:44:08;8.30;;;4.95;;
59649;SDS011;46162;57.568;25.814;2022-12-07T14:46:59;10.07;;;5.22;;
59649;SDS011;46162;57.568;25.814;2022-12-07T14:49:49;10.25;;;5.22;;
59649;SDS011;46162;57.568;25.814;2022-12-07T14:52:19;8.38;;;5.57;;
59649;SDS011;46162;57.568;25.814;2022-12-07T14:55:13;8.75;;;4.70;;
59649;SDS011;46162;57.568;25.814;2022-12-07T14:57:45;10.45;;;5.28;;
59649;SDS011;46162;57.568;25.814;2022-12-07T15:00:14;7.60;;;5.13;;
59649;SDS011;46162;57.568;25.814;2022-12-07T15:02:45;9.98;;;5.75;;
59649;SDS011;46162;57.568;25.814;2022-12-07T15:05:16;7.43;;;5.40;;
59649;SDS011;46162;57.568;25.814;2022-12-07T15:07:47;8.95;;;4.90;;
59649;SDS011;46162;57.568;25.814;2022-12-07T15:10:17;7.90;;;5.35;;
59649;SDS011;46162;57.568;25.814;2022-12-07T15:12:51;8.90;;;5.00;;
59649;SDS011;46162;57.568;25.814;2022-12-07T15:15:20;9.02;;;5.03;;
59649;SDS011;46162;57.568;25.814;2022-12-07T15:20:23;7.45;;;4.60;;
59649;SDS011;46162;57.568;25.814;2022-12-07T15:22:52;7.88;;;5.10;;
59649;SDS011;46162;57.568;25.814;2022-12-07T15:25:20;7.57;;;4.60;;
59649;SDS011;46162;57.568;25.814;2022-12-07T15:27:50;8.52;;;4.63;;
59649;SDS011;46162;57.568;25.814;2022-12-07T15:30:21;8.48;;;4.57;;
59649;SDS011;46162;57.568;25.814;2022-12-07T15:32:51;8.07;;;4.90;;
59649;SDS011;46162;57.568;25.814;2022-12-07T15:35:20;7.43;;;4.47;;
59649;SDS011;46162;57.568;25.814;2022-12-07T15:37:50;7.53;;;4.50;;
59649;SDS011;46162;57.568;25.814;2022-12-07T15:40:18;8.10;;;4.33;;
59649;SDS011;46162;57.568;25.814;2022-12-07T15:42:47;9.25;;;4.90;;
59649;SDS011;46162;57.568;25.814;2022-12-07T15:45:16;8.45;;;4.97;;
59649;SDS011;46162;57.568;25.814;2022-12-07T15:47:44;7.80;;;4.75;;
59649;SDS011;46162;57.568;25.814;2022-12-07T15:50:33;6.40;;;4.32;;
59649;SDS011;46162;57.568;25.814;2022-12-07T15:53:03;6.93;;;4.38;;
59649;SDS011;46162;57.568;25.814;2022-12-07T15:58:01;7.38;;;3.70;;
59649;SDS011;46162;57.568;25.814;2022-12-07T16:00:30;5.82;;;3.55;;
59649;SDS011;46162;57.568;25.814;2022-12-07T16:03:00;7.20;;;4.68;;
59649;SDS011;46162;57.568;25.814;2022-12-07T16:05:29;6.68;;;4.20;;
59649;SDS011;46162;57.568;25.814;2022-12-07T16:07:58;7.43;;;4.25;;
59649;SDS011;46162;57.568;25.814;2022-12-07T16:10:28;6.93;;;3.85;;
59649;SDS011;46162;57.568;25.814;2022-12-07T16:13:00;7.43;;;4.30;;
59649;SDS011;46162;57.568;25.814;2022-12-07T16:15:29;7.22;;;3.38;;
59649;SDS011;46162;57.568;25.814;2022-12-07T16:18:00;8.07;;;3.78;;
59649;SDS011;46162;57.568;25.814;2022-12-07T16:20:30;6.88;;;3.83;;